createdAt,value
2023-01-29T00:00:40.088Z,101396.72
2023-01-29T00:03:29.199Z,101406.19
2023-01-29T00:05:58.129Z,101398.44
2023-01-29T00:08:28.698Z,101398.50
2023-01-29T00:11:02.878Z,101394.16
2023-01-29T00:13:32.355Z,101384.66
2023-01-29T00:16:02.675Z,101381.19
2023-01-29T00:18:32.987Z,101377.72
2023-01-29T00:21:01.827Z,101381.97
2023-01-29T00:23:32.274Z,101376.00
2023-01-29T00:26:01.710Z,101361.31
2023-01-29T00:28:30.881Z,101359.59
2023-01-29T00:30:59.845Z,101364.75
2023-01-29T00:33:30.724Z,101362.06
2023-01-29T00:35:59.481Z,101362.09
2023-01-29T00:38:28.570Z,101353.47
2023-01-29T00:41:17.137Z,101358.63
2023-01-29T00:44:03.528Z,101350.88
2023-01-29T00:46:32.372Z,101345.75
2023-01-29T00:49:01.590Z,101345.75
2023-01-29T00:51:30.552Z,101351.72
2023-01-29T00:54:02.674Z,101358.66
2023-01-29T00:56:32.946Z,101346.66
2023-01-29T00:59:02.480Z,101336.31
2023-01-29T01:01:49.065Z,101338.97
2023-01-29T01:04:18.163Z,101337.19
2023-01-29T01:06:46.918Z,101340.66
2023-01-29T01:09:33.354Z,101327.63
2023-01-29T01:12:04.975Z,101309.50
2023-01-29T01:14:36.198Z,101304.22
2023-01-29T01:17:05.512Z,101292.09
2023-01-29T01:19:35.698Z,101285.25
2023-01-29T01:22:05.003Z,101293.09
2023-01-29T01:24:34.446Z,101288.78
2023-01-29T01:27:05.102Z,101289.66
2023-01-29T01:29:34.369Z,101293.94
2023-01-29T01:32:03.275Z,101286.97
2023-01-29T01:34:32.475Z,101292.09
2023-01-29T01:37:01.434Z,101289.53
2023-01-29T01:39:31.071Z,101294.72
2023-01-29T01:42:00.131Z,101294.72
2023-01-29T01:44:59.431Z,101297.31
2023-01-29T01:47:39.284Z,101289.59
2023-01-29T01:50:15.583Z,101278.41
2023-01-29T01:52:49.815Z,101292.16
2023-01-29T01:55:24.297Z,101300.72
2023-01-29T01:58:04.401Z,101292.16
2023-01-29T02:00:35.459Z,101299.09
2023-01-29T02:03:23.238Z,101287.84
2023-01-29T02:06:14.196Z,101296.47
2023-01-29T02:09:09.915Z,101299.13
2023-01-29T02:11:40.042Z,101295.69
2023-01-29T02:14:09.843Z,101303.47
2023-01-29T02:16:40.506Z,101299.97
2023-01-29T02:19:22.374Z,101303.44
2023-01-29T02:22:31.074Z,101300.78
2023-01-29T02:26:11.609Z,101292.16
2023-01-29T02:28:54.446Z,101284.41
2023-01-29T02:31:36.427Z,101283.50
2023-01-29T02:34:20.681Z,101274.88
2023-01-29T02:37:01.137Z,101273.22
2023-01-29T02:39:37.518Z,101274.13
2023-01-29T02:42:17.661Z,101274.97
2023-01-29T02:44:57.399Z,101275.81
2023-01-29T02:47:36.341Z,101268.00
2023-01-29T02:50:16.388Z,101263.66
2023-01-29T02:52:56.865Z,101263.66
2023-01-29T02:55:31.851Z,101260.25
2023-01-29T02:58:12.773Z,101260.28
2023-01-29T03:00:48.025Z,101270.59
2023-01-29T03:03:25.035Z,101256.72
2023-01-29T03:06:06.363Z,101253.31
2023-01-29T03:08:45.617Z,101248.16
2023-01-29T03:11:18.751Z,101253.34
2023-01-29T03:13:54.483Z,101242.22
2023-01-29T03:16:34.408Z,101240.50
2023-01-29T03:19:09.914Z,101241.38
2023-01-29T03:21:51.652Z,101242.19
2023-01-29T03:24:52.741Z,101249.09
2023-01-29T03:27:49.730Z,101236.13
2023-01-29T03:30:38.964Z,101242.19
2023-01-29T03:33:27.755Z,101246.53
2023-01-29T03:36:07.720Z,101243.06
2023-01-29T03:38:37.171Z,101243.09
2023-01-29T03:41:14.058Z,101236.16
2023-01-29T03:43:55.622Z,101237.00
2023-01-29T03:46:33.319Z,101244.69
2023-01-29T03:49:16.631Z,101248.19
2023-01-29T03:51:57.892Z,101246.50
2023-01-29T03:54:40.094Z,101241.28
2023-01-29T03:57:20.320Z,101238.72
2023-01-29T04:00:00.437Z,101230.94
2023-01-29T04:02:53.298Z,101235.22
2023-01-29T04:05:32.751Z,101228.28
2023-01-29T04:08:19.422Z,101226.56
2023-01-29T04:10:51.274Z,101223.06
2023-01-29T04:13:21.516Z,101229.16
2023-01-29T04:15:57.356Z,101224.06
2023-01-29T04:18:48.145Z,101225.75
2023-01-29T04:21:20.383Z,101223.09
2023-01-29T04:23:49.215Z,101219.66
2023-01-29T04:26:42.006Z,101213.59
2023-01-29T04:29:43.754Z,101208.47
2023-01-29T04:32:25.964Z,101202.38
2023-01-29T04:35:07.838Z,101205.06
2023-01-29T04:37:51.233Z,101207.53
2023-01-29T04:40:30.847Z,101212.72
2023-01-29T04:43:08.862Z,101207.53
2023-01-29T04:45:49.978Z,101204.03
2023-01-29T04:48:26.558Z,101210.03
2023-01-29T04:51:08.074Z,101210.94
2023-01-29T04:53:49.722Z,101202.31
2023-01-29T04:56:28.432Z,101197.16
2023-01-29T04:59:05.679Z,101193.75
2023-01-29T05:01:38.875Z,101193.75
2023-01-29T05:04:14.359Z,101185.16
2023-01-29T05:06:46.671Z,101184.28
2023-01-29T05:09:19.058Z,101182.53
2023-01-29T05:11:50.330Z,101190.22
2023-01-29T05:14:22.125Z,101194.50
2023-01-29T05:16:55.728Z,101197.13
2023-01-29T05:19:24.775Z,101188.44
2023-01-29T05:21:53.825Z,101189.25
2023-01-29T05:24:27.692Z,101183.19
2023-01-29T05:27:14.030Z,101184.13
2023-01-29T05:29:47.829Z,101184.13
2023-01-29T05:32:17.531Z,101184.13
2023-01-29T05:34:46.827Z,101175.50
2023-01-29T05:37:15.582Z,101171.25
2023-01-29T05:39:46.046Z,101164.25
2023-01-29T05:42:14.867Z,101165.19
2023-01-29T05:44:44.066Z,101172.13
2023-01-29T05:47:12.859Z,101172.22
2023-01-29T05:49:41.935Z,101166.91
2023-01-29T05:52:10.773Z,101165.22
2023-01-29T05:54:39.872Z,101162.63
2023-01-29T05:57:10.147Z,101158.34
2023-01-29T05:59:39.260Z,101154.94
2023-01-29T06:02:08.176Z,101158.38
2023-01-29T06:04:37.531Z,101156.66
2023-01-29T06:07:06.367Z,101161.88
2023-01-29T06:09:35.425Z,101162.69
2023-01-29T06:12:06.226Z,101172.19
2023-01-29T06:14:36.667Z,101170.44
2023-01-29T06:17:05.891Z,101171.25
2023-01-29T06:19:35.002Z,101173.00
2023-01-29T06:22:03.781Z,101178.19
2023-01-29T06:24:33.775Z,101175.56
2023-01-29T06:27:02.631Z,101176.34
2023-01-29T06:29:31.757Z,101173.78
2023-01-29T06:32:02.081Z,101173.78
2023-01-29T06:34:31.250Z,101169.50
2023-01-29T06:37:00.048Z,101164.31
2023-01-29T06:39:29.202Z,101171.28
2023-01-29T06:41:58.146Z,101160.06
2023-01-29T06:44:27.562Z,101165.13
2023-01-29T06:46:56.698Z,101166.88
2023-01-29T06:49:27.138Z,101172.13
2023-01-29T06:51:55.938Z,101165.97
2023-01-29T06:54:25.202Z,101172.00
2023-01-29T06:56:54.087Z,101171.16
2023-01-29T06:59:23.349Z,101167.84
2023-01-29T07:01:52.198Z,101166.06
2023-01-29T07:04:21.604Z,101169.38
2023-01-29T07:06:51.884Z,101165.13
2023-01-29T07:09:21.098Z,101160.72
2023-01-29T07:11:49.963Z,101145.13
2023-01-29T07:14:19.234Z,101136.50
2023-01-29T07:16:48.038Z,101126.19
2023-01-29T07:19:17.373Z,101132.91
2023-01-29T07:21:46.396Z,101142.38
2023-01-29T07:24:17.320Z,101150.16
2023-01-29T07:26:46.260Z,101153.59
2023-01-29T07:29:15.383Z,101150.13
2023-01-29T07:31:44.397Z,101145.72
2023-01-29T07:34:13.617Z,101163.00
2023-01-29T07:36:42.469Z,101168.97
2023-01-29T07:39:11.624Z,101178.56
2023-01-29T07:41:42.278Z,101175.19
2023-01-29T07:44:18.200Z,101182.00
2023-01-29T07:46:46.969Z,101177.66
2023-01-29T07:49:16.318Z,101175.88
2023-01-29T07:51:45.123Z,101168.13
2023-01-29T07:54:14.189Z,101168.97
2023-01-29T07:56:44.374Z,101170.63
2023-01-29T07:59:13.432Z,101164.50
2023-01-29T08:01:42.452Z,101158.34
2023-01-29T08:04:11.663Z,101149.84
2023-01-29T08:06:40.469Z,101154.19
2023-01-29T08:09:09.726Z,101149.78
2023-01-29T08:11:38.792Z,101157.63
2023-01-29T08:14:09.731Z,101154.94
2023-01-29T08:16:38.591Z,101145.38
2023-01-29T08:19:07.685Z,101146.19
2023-01-29T08:21:36.455Z,101136.66
2023-01-29T08:24:06.346Z,101136.63
2023-01-29T08:26:35.400Z,101141.84
2023-01-29T08:29:04.767Z,101136.53
2023-01-29T08:31:35.244Z,101133.97
2023-01-29T08:34:04.347Z,101140.81
2023-01-29T08:36:34.589Z,101136.38
2023-01-29T08:39:03.731Z,101139.03
2023-01-29T08:41:32.522Z,101138.91
2023-01-29T08:44:04.333Z,101134.47
2023-01-29T08:46:34.630Z,101136.88
2023-01-29T08:49:03.910Z,101139.50
2023-01-29T08:51:33.222Z,101139.69
2023-01-29T08:54:02.346Z,101131.91
2023-01-29T08:56:31.267Z,101130.91
2023-01-29T08:59:00.681Z,101120.50
2023-01-29T09:01:29.635Z,101128.22
2023-01-29T09:04:00.241Z,101124.00
2023-01-29T09:06:29.208Z,101110.78
2023-01-29T09:08:58.463Z,101114.94
2023-01-29T09:11:27.658Z,101109.47
2023-01-29T09:13:56.756Z,101107.59
2023-01-29T09:16:25.636Z,101087.59
2023-01-29T09:18:55.336Z,101092.56
2023-01-29T09:21:25.502Z,101075.88
2023-01-29T09:23:54.565Z,101079.25
2023-01-29T09:26:23.498Z,101083.66
2023-01-29T09:28:52.645Z,101089.63
2023-01-29T09:31:21.540Z,101091.53
2023-01-29T09:33:50.746Z,101089.22
2023-01-29T09:36:19.546Z,101089.16
2023-01-29T09:38:49.994Z,101087.44
2023-01-29T09:41:40.342Z,101090.84
2023-01-29T09:44:22.220Z,101076.09
2023-01-29T09:46:55.449Z,101074.13
2023-01-29T09:49:31.610Z,101067.34
2023-01-29T09:52:08.325Z,101068.19
2023-01-29T09:54:55.914Z,101061.13
2023-01-29T09:57:33.270Z,101059.41
2023-01-29T10:00:02.384Z,101058.28
2023-01-29T10:03:14.064Z,101051.97
2023-01-29T10:06:06.264Z,101049.09
2023-01-29T10:09:33.055Z,101053.25
2023-01-29T10:12:25.943Z,101047.16
2023-01-29T10:15:08.708Z,101044.84
2023-01-29T10:18:02.280Z,101045.19
2023-01-29T10:20:56.430Z,101038.69
2023-01-29T10:23:30.204Z,101036.06
2023-01-29T10:25:59.361Z,101030.81
2023-01-29T10:28:38.518Z,101033.28
2023-01-29T10:31:15.039Z,101036.25
2023-01-29T10:34:02.081Z,101039.28
2023-01-29T10:36:39.708Z,101034.00
2023-01-29T10:39:19.442Z,101033.13
2023-01-29T10:42:08.195Z,101042.59
2023-01-29T10:45:00.936Z,101030.59
2023-01-29T10:48:04.882Z,101029.69
2023-01-29T10:50:50.477Z,101027.94
2023-01-29T10:53:47.004Z,101030.44
2023-01-29T10:56:38.527Z,101028.78
2023-01-29T10:59:26.585Z,101024.59
2023-01-29T11:02:03.327Z,101015.09
2023-01-29T11:04:35.349Z,101011.56
2023-01-29T11:07:05.485Z,101012.31
2023-01-29T11:09:43.290Z,101007.13
2023-01-29T11:12:16.659Z,100999.41
2023-01-29T11:14:53.014Z,100995.59
2023-01-29T11:17:26.234Z,101002.50
2023-01-29T11:19:56.936Z,100992.22
2023-01-29T11:22:28.367Z,100982.50
2023-01-29T11:25:18.062Z,100985.16
2023-01-29T11:27:50.548Z,100981.53
2023-01-29T11:30:26.725Z,100971.22
2023-01-29T11:33:09.907Z,100963.41
2023-01-29T11:35:39.115Z,100953.72
2023-01-29T11:38:19.759Z,100941.47
2023-01-29T11:40:49.253Z,100938.59
2023-01-29T11:43:29.278Z,100931.47
2023-01-29T11:46:02.529Z,100929.19
2023-01-29T11:48:45.400Z,100925.97
2023-01-29T11:51:25.357Z,100928.66
2023-01-29T11:53:57.866Z,100922.66
2023-01-29T11:56:35.224Z,100926.16
2023-01-29T11:59:05.677Z,100920.31
2023-01-29T12:01:39.802Z,100919.59
2023-01-29T12:04:21.952Z,100915.31
2023-01-29T12:06:53.319Z,100913.53
2023-01-29T12:09:27.315Z,100900.06
2023-01-29T12:11:56.375Z,100901.13
2023-01-29T12:14:35.276Z,100891.56
2023-01-29T12:17:13.734Z,100899.38
2023-01-29T12:19:52.368Z,100892.50
2023-01-29T12:22:33.834Z,100889.09
2023-01-29T12:25:12.818Z,100879.56
2023-01-29T12:27:54.386Z,100877.03
2023-01-29T12:30:32.941Z,100885.41
2023-01-29T12:33:15.798Z,100872.50
2023-01-29T12:35:54.918Z,100875.72
2023-01-29T12:38:25.391Z,100873.31
2023-01-29T12:41:05.223Z,100883.00
2023-01-29T12:43:42.341Z,100867.69
2023-01-29T12:46:22.882Z,100863.88
2023-01-29T12:48:56.989Z,100856.19
2023-01-29T12:51:38.902Z,100855.25
2023-01-29T12:54:14.583Z,100838.06
2023-01-29T12:56:49.848Z,100843.22
2023-01-29T12:59:29.460Z,100838.22
2023-01-29T13:02:03.799Z,100835.25
2023-01-29T13:04:42.443Z,100835.06
2023-01-29T13:07:19.986Z,100831.38
2023-01-29T13:09:56.523Z,100838.41
2023-01-29T13:12:27.417Z,100858.88
2023-01-29T13:15:01.972Z,100856.94
2023-01-29T13:17:38.841Z,100860.16
2023-01-29T13:20:19.081Z,100856.81
2023-01-29T13:22:54.115Z,100860.31
2023-01-29T13:25:22.985Z,100862.97
2023-01-29T13:27:52.533Z,100856.94
2023-01-29T13:30:31.542Z,100856.03
2023-01-29T13:33:12.824Z,100857.53
2023-01-29T13:35:47.144Z,100853.50
2023-01-29T13:38:28.206Z,100855.16
2023-01-29T13:41:02.986Z,100848.25
2023-01-29T13:43:38.517Z,100844.00
2023-01-29T13:46:14.085Z,100822.53
2023-01-29T13:48:46.762Z,100830.34
2023-01-29T13:51:21.919Z,100828.78
2023-01-29T13:54:01.839Z,100803.44
2023-01-29T13:56:46.449Z,100827.19
2023-01-29T13:59:46.350Z,100817.94
2023-01-29T14:02:26.423Z,100817.06
2023-01-29T14:05:40.083Z,100821.47
2023-01-29T14:08:44.292Z,100819.69
2023-01-29T14:11:37.687Z,100830.19
2023-01-29T14:15:04.247Z,100844.66
2023-01-29T14:17:33.767Z,100846.31
2023-01-29T14:20:17.599Z,100852.28
2023-01-29T14:22:57.713Z,100856.97
2023-01-29T14:25:33.107Z,100858.63
2023-01-29T14:28:05.937Z,100861.13
2023-01-29T14:30:38.081Z,100844.69
2023-01-29T14:33:25.186Z,100826.44
2023-01-29T14:35:57.180Z,100841.84
2023-01-29T14:38:30.207Z,100849.63
2023-01-29T14:41:16.899Z,100825.38
2023-01-29T14:43:45.987Z,100811.50
2023-01-29T14:46:45.805Z,100809.13
2023-01-29T14:49:52.316Z,100811.75
2023-01-29T14:52:28.121Z,100813.72
2023-01-29T14:55:03.887Z,100812.00
2023-01-29T14:57:34.163Z,100821.59
2023-01-29T15:00:07.455Z,100833.75
2023-01-29T15:02:44.219Z,100834.44
2023-01-29T15:05:21.528Z,100826.84
2023-01-29T15:07:58.427Z,100843.91
2023-01-29T15:10:40.034Z,100831.16
2023-01-29T15:13:21.303Z,100828.44
2023-01-29T15:15:58.153Z,100828.34
2023-01-29T15:18:39.847Z,100825.81
2023-01-29T15:21:14.449Z,100807.75
2023-01-29T15:23:44.313Z,100812.19
2023-01-29T15:26:20.694Z,100804.38
2023-01-29T15:29:03.611Z,100799.16
2023-01-29T15:31:36.140Z,100800.81
2023-01-29T15:34:08.933Z,100794.75
2023-01-29T15:36:40.057Z,100797.72
2023-01-29T15:39:18.807Z,100788.84
2023-01-29T15:41:48.848Z,100789.88
2023-01-29T15:44:20.651Z,100794.00
2023-01-29T15:46:54.746Z,100788.03
2023-01-29T15:49:33.100Z,100777.56
2023-01-29T15:52:07.185Z,100774.03
2023-01-29T15:54:37.328Z,100777.66
2023-01-29T15:57:07.924Z,100767.28
2023-01-29T15:59:51.705Z,100762.88
2023-01-29T16:02:36.463Z,100749.94
2023-01-29T16:05:12.867Z,100759.97
2023-01-29T16:07:43.673Z,100763.31
2023-01-29T16:10:21.295Z,100761.53
2023-01-29T16:12:53.271Z,100764.41
2023-01-29T16:15:37.135Z,100763.38
2023-01-29T16:18:23.025Z,100765.00
2023-01-29T16:20:56.690Z,100769.38
2023-01-29T16:23:30.635Z,100776.22
2023-01-29T16:26:07.110Z,100771.03
2023-01-29T16:28:42.586Z,100771.13
2023-01-29T16:31:14.087Z,100773.66
2023-01-29T16:33:45.607Z,100772.72
2023-01-29T16:36:21.190Z,100777.81
2023-01-29T16:38:56.729Z,100782.84
2023-01-29T16:41:35.956Z,100784.69
2023-01-29T16:44:32.802Z,100784.59
2023-01-29T16:47:13.938Z,100774.44
2023-01-29T16:49:51.373Z,100781.25
2023-01-29T16:52:27.220Z,100783.88
2023-01-29T16:55:15.098Z,100783.69
2023-01-29T16:57:51.061Z,100776.94
2023-01-29T17:00:26.016Z,100778.03
2023-01-29T17:03:00.551Z,100775.22
2023-01-29T17:05:32.855Z,100770.91
2023-01-29T17:08:05.792Z,100769.19
2023-01-29T17:10:36.170Z,100770.13
2023-01-29T17:13:08.483Z,100764.16
2023-01-29T17:15:46.973Z,100759.97
2023-01-29T17:18:21.494Z,100752.97
2023-01-29T17:20:53.048Z,100748.66
2023-01-29T17:23:24.209Z,100742.63
2023-01-29T17:25:53.383Z,100737.22
2023-01-29T17:28:22.241Z,100742.34
2023-01-29T17:31:05.216Z,100735.38
2023-01-29T17:33:36.691Z,100729.38
2023-01-29T17:36:06.533Z,100732.00
2023-01-29T17:38:36.956Z,100726.00
2023-01-29T17:41:12.527Z,100719.78
2023-01-29T17:43:41.472Z,100712.88
2023-01-29T17:46:16.585Z,100711.88
2023-01-29T17:48:46.055Z,100693.88
2023-01-29T17:51:17.750Z,100694.00
2023-01-29T17:53:47.985Z,100684.66
2023-01-29T17:56:19.172Z,100676.78
2023-01-29T17:58:48.090Z,100668.84
2023-01-29T18:01:17.335Z,100671.59
2023-01-29T18:03:46.250Z,100671.66
2023-01-29T18:06:28.497Z,100664.59
2023-01-29T18:08:58.775Z,100661.25
2023-01-29T18:11:28.510Z,100646.66
2023-01-29T18:13:57.976Z,100638.69
2023-01-29T18:16:28.679Z,100633.50
2023-01-29T18:18:57.693Z,100634.25
2023-01-29T18:21:26.865Z,100635.09
2023-01-29T18:23:55.660Z,100631.66
2023-01-29T18:26:26.132Z,100635.25
2023-01-29T18:28:55.002Z,100630.13
2023-01-29T18:31:24.114Z,100635.25
2023-01-29T18:33:52.946Z,100628.44
2023-01-29T18:36:22.146Z,100632.81
2023-01-29T18:38:51.110Z,100628.63
2023-01-29T18:41:20.357Z,100635.31
2023-01-29T18:43:52.701Z,100637.13
2023-01-29T18:46:24.331Z,100626.91
2023-01-29T18:48:53.269Z,100624.38
2023-01-29T18:51:22.373Z,100624.31
2023-01-29T18:53:52.083Z,100628.53
2023-01-29T18:56:21.293Z,100622.56
2023-01-29T18:58:57.037Z,100623.56
2023-01-29T19:01:27.304Z,100620.84
2023-01-29T19:03:56.226Z,100608.69
2023-01-29T19:06:25.323Z,100610.41
2023-01-29T19:08:54.219Z,100616.25
2023-01-29T19:11:23.409Z,100612.59
2023-01-29T19:13:54.901Z,100610.81
2023-01-29T19:16:24.503Z,100610.78
2023-01-29T19:18:56.093Z,100613.31
2023-01-29T19:21:25.316Z,100610.88
2023-01-29T19:23:54.240Z,100612.53
2023-01-29T19:26:24.275Z,100612.53
2023-01-29T19:28:54.538Z,100610.72
2023-01-29T19:31:23.663Z,100601.34
2023-01-29T19:33:52.486Z,100597.69
2023-01-29T19:36:21.703Z,100593.56
2023-01-29T19:38:50.554Z,100589.94
2023-01-29T19:41:19.845Z,100588.28
2023-01-29T19:43:48.760Z,100580.59
2023-01-29T19:46:19.305Z,100579.78
2023-01-29T19:48:48.521Z,100577.25
2023-01-29T19:51:17.666Z,100578.88
2023-01-29T19:53:46.486Z,100570.25
2023-01-29T19:56:18.410Z,100565.63
2023-01-29T19:58:48.243Z,100561.50
2023-01-29T20:01:21.721Z,100563.81
2023-01-29T20:03:51.266Z,100565.56
2023-01-29T20:06:24.599Z,100562.13
2023-01-29T20:08:53.543Z,100551.78
2023-01-29T20:11:25.146Z,100548.50
2023-01-29T20:13:54.963Z,100538.34
2023-01-29T20:16:27.723Z,100531.19
2023-01-29T20:19:13.987Z,100528.66
2023-01-29T20:21:48.849Z,100532.06
2023-01-29T20:24:18.012Z,100527.00
2023-01-29T20:26:47.306Z,100520.91
2023-01-29T20:29:16.428Z,100521.63
2023-01-29T20:31:47.046Z,100512.06
2023-01-29T20:34:15.946Z,100509.34
2023-01-29T20:36:44.981Z,100507.34
2023-01-29T20:39:13.849Z,100505.78
2023-01-29T20:41:42.912Z,100485.94
2023-01-29T20:44:11.743Z,100480.75
2023-01-29T20:46:40.813Z,100472.88
2023-01-29T20:49:12.363Z,100467.66
2023-01-29T20:51:41.522Z,100465.06
2023-01-29T20:54:12.595Z,100461.47
2023-01-29T20:56:43.354Z,100458.13
2023-01-29T20:59:15.922Z,100453.88
2023-01-29T21:01:45.849Z,100452.94
2023-01-29T21:04:16.077Z,100455.41
2023-01-29T21:06:45.147Z,100452.75
2023-01-29T21:09:13.947Z,100454.34
2023-01-29T21:11:44.986Z,100440.72
2023-01-29T21:14:14.202Z,100453.47
2023-01-29T21:16:43.424Z,100450.88
2023-01-29T21:19:15.986Z,100442.34
2023-01-29T21:21:45.244Z,100451.81
2023-01-29T21:24:15.200Z,100450.88
2023-01-29T21:26:44.407Z,100445.78
2023-01-29T21:29:13.455Z,100442.38
2023-01-29T21:31:44.332Z,100443.31
2023-01-29T21:34:13.183Z,100440.59
2023-01-29T21:36:43.673Z,100440.28
2023-01-29T21:39:20.654Z,100433.69
2023-01-29T21:42:10.105Z,100433.81
2023-01-29T21:44:39.415Z,100431.06
2023-01-29T21:47:13.283Z,100437.00
2023-01-29T21:49:43.594Z,100428.47
2023-01-29T21:52:15.467Z,100415.41
2023-01-29T21:54:48.973Z,100420.56
2023-01-29T21:57:18.634Z,100412.84
2023-01-29T21:59:51.474Z,100412.06
2023-01-29T22:02:26.287Z,100407.59
2023-01-29T22:05:08.774Z,100397.22
2023-01-29T22:07:47.879Z,100397.13
2023-01-29T22:10:18.729Z,100392.72
2023-01-29T22:12:48.843Z,100385.56
2023-01-29T22:15:18.085Z,100388.25
2023-01-29T22:17:47.180Z,100382.09
2023-01-29T22:20:16.630Z,100373.31
2023-01-29T22:22:47.457Z,100370.69
2023-01-29T22:25:20.083Z,100363.88
2023-01-29T22:27:49.311Z,100366.38
2023-01-29T22:30:19.548Z,100358.66
2023-01-29T22:32:48.764Z,100344.84
2023-01-29T22:35:18.094Z,100349.00
2023-01-29T22:37:48.601Z,100343.81
2023-01-29T22:40:17.990Z,100339.59
2023-01-29T22:42:47.396Z,100325.72
2023-01-29T22:45:16.604Z,100317.88
2023-01-29T22:47:45.682Z,100312.59
2023-01-29T22:50:15.343Z,100305.88
2023-01-29T22:52:53.582Z,100293.78
2023-01-29T22:55:23.866Z,100286.88
2023-01-29T22:57:53.505Z,100283.13
2023-01-29T23:00:22.905Z,100270.97
2023-01-29T23:02:52.573Z,100258.69
2023-01-29T23:05:21.413Z,100258.94
2023-01-29T23:07:50.519Z,100251.06
2023-01-29T23:10:19.742Z,100245.94
2023-01-29T23:12:50.331Z,100242.44
2023-01-29T23:15:19.140Z,100233.72
2023-01-29T23:17:48.543Z,100236.91
2023-01-29T23:20:20.627Z,100229.03
2023-01-29T23:22:50.431Z,100239.47
2023-01-29T23:25:19.570Z,100225.59
2023-01-29T23:27:49.121Z,100222.81
2023-01-29T23:30:18.829Z,100216.75
2023-01-29T23:32:48.343Z,100215.84
2023-01-29T23:35:17.381Z,100219.88
2023-01-29T23:37:46.510Z,100201.66
2023-01-29T23:40:16.338Z,100204.31
2023-01-29T23:42:45.841Z,100202.34
2023-01-29T23:45:16.198Z,100200.38
2023-01-29T23:47:45.322Z,100195.97
2023-01-29T23:50:14.173Z,100188.47
2023-01-29T23:52:43.250Z,100185.03
2023-01-29T23:55:12.029Z,100184.88
2023-01-29T23:57:41.153Z,100188.28
